Time;durP1;ratioP1;P1;durP2;ratioP2;P2;SDS_P1;SDS_P2;PMS_P1;PMS_P2;Temp;Humidity;BMP_temperature;BMP_pressure;BME280_temperature;BME280_humidity;BME280_pressure;Samples;Min_cycle;Max_cycle;Signal;HPM_P1;HPM_P2
2021/10/04 00:05:00;;;;;;;22.30;11.97;;;;;;;14.74;74.65;100485.03;5272973;56;21201;-82
2021/10/04 00:11:01;;;;;;;;;;;;;;;;;;;;;
2021/10/04 00:22:24;;;;;;;;;;;;;;;;;;;;;
2021/10/04 00:54:03;;;;;;;14.10;11.33;;;;;;;14.42;75.37;100489.41;5063102;56;21193;-81
2021/10/04 00:59:25;;;;;;;;;;;;;;;;;;;;;
2021/10/04 01:04:27;;;;;;;19.17;12.70;;;;;;;14.42;75.61;100495.58;4918404;58;21204;-81
2021/10/04 01:09:33;;;;;;;19.23;11.07;;;;;;;14.40;75.51;100500.69;5139597;57;21202;-81
2021/10/04 01:14:40;;;;;;;27.90;12.37;;;;;;;14.39;75.43;100499.81;5063946;57;21143;-81
2021/10/04 01:19:46;;;;;;;21.53;11.73;;;;;;;14.45;75.68;100496.27;5064348;57;21267;-81
2021/10/04 01:24:53;;;;;;;19.03;13.20;;;;;;;14.46;75.72;100501.95;4993617;57;21147;-80
2021/10/04 01:29:59;;;;;;;18.37;11.70;;;;;;;14.45;75.87;100511.75;5143405;57;21497;-81
2021/10/04 01:35:08;;;;;;;30.50;11.53;;;;;;;14.40;75.83;100511.33;5148977;57;21191;-81
2021/10/04 01:40:15;;;;;;;23.60;13.23;;;;;;;14.34;75.70;100514.55;5139160;57;21219;-81
2021/10/04 01:45:26;;;;;;;17.03;11.97;;;;;;;14.33;75.95;100514.20;5151637;57;21204;-81
2021/10/04 01:50:38;;;;;;;23.77;13.90;;;;;;;14.29;76.12;100510.14;5137328;57;21179;-80
2021/10/04 02:01:21;;;;;;;20.03;12.47;;;;;;;14.23;76.38;100509.37;4754591;60;21227;-80
2021/10/04 02:06:28;;;;;;;23.97;13.20;;;;;;;14.23;76.44;100513.36;4771259;61;21705;-81
2021/10/04 02:11:47;;;;;;;25.93;13.27;;;;;;;14.26;76.58;100516.58;4768164;61;21335;-81
2021/10/04 02:22:45;;;;;;;;;;;;;;;;;;;;;
2021/10/04 02:28:18;;;;;;;;;;;;;;;;;;;;;
2021/10/04 02:33:22;;;;;;;34.37;19.00;;;;;;;14.23;76.71;100530.16;5177892;56;21171;-81
2021/10/04 02:38:31;;;;;;;29.93;15.37;;;;;;;14.28;76.93;100545.22;5160143;56;21254;-81
2021/10/04 02:43:38;;;;;;;21.07;13.47;;;;;;;14.33;77.05;100536.33;5273073;56;21219;-81
2021/10/04 02:48:45;;;;;;;20.60;13.13;;;;;;;14.28;76.74;100542.55;5273108;56;21256;-81
2021/10/04 03:05:47;;;;;;;26.77;13.83;;;;;;;14.31;77.20;100546.76;4476983;65;21214;-81
2021/10/04 03:11:07;;;;;;;25.60;14.00;;;;;;;14.41;77.07;100540.46;5407714;55;21477;-81
2021/10/04 03:16:16;;;;;;;22.80;13.20;;;;;;;14.38;77.28;100546.03;5293034;55;21757;-81
2021/10/04 03:21:23;;;;;;;30.87;14.60;;;;;;;14.36;77.19;100542.67;5293227;56;21199;-82
2021/10/04 03:26:29;;;;;;;20.93;12.63;;;;;;;14.28;76.94;100539.05;5291234;56;21568;-81
2021/10/04 03:31:35;;;;;;;21.57;11.87;;;;;;;14.20;77.00;100545.59;5290063;56;21570;-81
2021/10/04 03:36:42;;;;;;;31.60;14.40;;;;;;;14.14;76.91;100548.31;5290590;56;21513;-81
2021/10/04 03:41:48;;;;;;;22.60;13.30;;;;;;;14.05;77.21;100548.65;5290908;56;21105;-81
2021/10/04 03:46:53;;;;;;;26.37;12.63;;;;;;;13.99;77.44;100551.89;5292979;56;21220;-81
2021/10/04 03:52:01;;;;;;;17.97;12.37;;;;;;;13.95;77.85;100554.95;5293098;56;21231;-81
2021/10/04 03:57:08;;;;;;;32.10;14.23;;;;;;;13.93;77.83;100563.07;5293051;56;21114;-81
2021/10/04 04:02:13;;;;;;;24.60;15.17;;;;;;;13.96;78.01;100570.77;5292872;56;21477;-80
2021/10/04 04:07:20;;;;;;;24.47;14.80;;;;;;;14.05;78.47;100571.77;5295595;54;21189;-81
2021/10/04 04:12:26;;;;;;;38.37;18.07;;;;;;;14.08;78.35;100571.47;5240548;55;21429;-81
2021/10/04 04:35:37;;;;;;;24.87;13.87;;;;;;;14.14;78.21;100597.52;5213835;56;21144;-81
2021/10/04 04:40:43;;;;;;;28.93;14.47;;;;;;;14.17;78.38;100597.24;5264602;56;21216;-80
2021/10/04 04:45:49;;;;;;;21.30;14.10;;;;;;;14.15;78.32;100587.23;5214736;56;21277;-82
2021/10/04 04:50:55;;;;;;;19.50;12.77;;;;;;;14.08;78.21;100580.78;5179977;57;21270;-80
2021/10/04 04:56:01;;;;;;;24.67;11.97;;;;;;;14.09;78.31;100591.77;5180017;57;21183;-81
2021/10/04 05:01:06;;;;;;;25.27;14.27;;;;;;;14.12;78.43;100594.16;5184888;57;21219;-81
2021/10/04 05:06:12;;;;;;;27.23;14.50;;;;;;;14.03;78.29;100597.66;5211702;56;21133;-80
2021/10/04 05:11:18;;;;;;;24.00;14.97;;;;;;;14.03;78.81;100602.98;5257935;55;21166;-83
2021/10/04 05:16:24;;;;;;;24.17;14.13;;;;;;;14.05;79.06;100595.70;5247282;56;21512;-83
2021/10/04 05:21:32;;;;;;;24.77;12.90;;;;;;;14.10;78.94;100610.73;5265144;55;21151;-83
2021/10/04 05:26:39;;;;;;;20.70;13.20;;;;;;;13.99;78.14;100621.03;5290192;55;21205;-84
2021/10/04 05:31:45;;;;;;;26.23;13.23;;;;;;;13.73;78.24;100623.86;5293189;55;21183;-81
2021/10/04 05:36:50;;;;;;;25.33;14.07;;;;;;;13.60;78.95;100616.11;5250439;55;21086;-82
2021/10/04 05:42:37;;;;;;;;;;;;;;;;;;;;;
2021/10/04 05:47:33;;;;;;;16.40;11.80;;;;;;;13.60;79.51;100620.09;5156462;57;21169;-82
2021/10/04 05:52:40;;;;;;;24.07;14.60;;;;;;;13.57;79.50;100632.84;5190817;57;21256;-82
2021/10/04 05:57:48;;;;;;;21.57;14.63;;;;;;;13.66;80.31;100626.70;5190402;57;21277;-82
2021/10/04 06:02:56;;;;;;;28.30;15.73;;;;;;;13.80;80.27;100624.13;5207745;56;21141;-83
2021/10/04 06:26:51;;;;;;;26.37;15.07;;;;;;;14.46;80.13;100625.69;5105799;58;21153;-83
2021/10/04 06:31:56;;;;;;;21.87;14.20;;;;;;;14.68;80.58;100632.02;5098087;58;21164;-82
2021/10/04 06:37:02;;;;;;;28.93;17.17;;;;;;;15.02;80.65;100632.38;5077758;58;21234;-82
2021/10/04 06:42:09;;;;;;;21.20;14.47;;;;;;;15.33;80.21;100636.95;5075321;57;21601;-82
2021/10/04 06:47:15;;;;;;;18.03;11.27;;;;;;;15.49;79.50;100651.83;5139931;57;21163;-83
2021/10/04 06:52:22;;;;;;;19.23;12.53;;;;;;;15.39;78.59;100665.70;5140257;57;21187;-84
2021/10/04 06:57:30;;;;;;;22.13;12.57;;;;;;;15.37;78.60;100664.52;5140115;57;21120;-82
2021/10/04 07:02:37;;;;;;;19.27;11.50;;;;;;;15.43;78.85;100670.57;5140131;57;21171;-83
2021/10/04 07:07:48;;;;;;;19.23;13.67;;;;;;;15.48;78.89;100662.98;5183106;56;21563;-84
2021/10/04 07:13:01;;;;;;;20.97;14.87;;;;;;;15.60;79.08;100662.81;5032574;59;21243;-84
2021/10/04 07:18:14;;;;;;;34.13;13.87;;;;;;;15.83;79.70;100647.62;5071104;58;21183;-85
2021/10/04 07:23:20;;;;;;;28.87;14.10;;;;;;;15.99;78.42;100680.80;5081660;57;21279;-76
2021/10/04 07:28:26;;;;;;;21.30;15.00;;;;;;;15.99;78.40;100690.97;5049680;57;21170;-81
2021/10/04 07:33:32;;;;;;;24.30;15.93;;;;;;;16.00;78.30;100697.15;5055256;58;21667;-78
2021/10/04 07:38:38;;;;;;;22.03;15.47;;;;;;;16.07;78.64;100695.05;5044526;58;21696;-78
2021/10/04 07:43:44;;;;;;;18.90;12.57;;;;;;;16.28;78.96;100701.95;5059065;58;21191;-80
2021/10/04 07:48:50;;;;;;;31.20;15.60;;;;;;;16.37;78.28;100705.03;5064534;58;21239;-79
2021/10/04 07:53:56;;;;;;;20.93;11.67;;;;;;;16.43;78.58;100729.30;5069981;58;21203;-79
2021/10/04 07:59:03;;;;;;;17.53;11.77;;;;;;;16.66;78.62;100720.36;5065160;58;21728;-79
2021/10/04 08:04:10;;;;;;;10.70;8.27;;;;;;;16.84;78.24;100714.52;5064886;58;21263;-79
2021/10/04 08:09:16;;;;;;;17.63;13.80;;;;;;;17.12;78.59;100713.05;4994923;58;21698;-79
2021/10/04 08:14:21;;;;;;;19.87;14.33;;;;;;;17.30;76.81;100727.20;4998623;58;21168;-80
2021/10/04 08:19:27;;;;;;;18.57;13.50;;;;;;;17.36;76.10;100731.09;5076638;58;21151;-83
2021/10/04 08:24:33;;;;;;;21.87;14.27;;;;;;;17.38;76.07;100734.45;5070832;58;21171;-83
2021/10/04 08:29:39;;;;;;;18.90;14.03;;;;;;;17.42;75.68;100736.63;5054414;58;21172;-82
2021/10/04 08:34:45;;;;;;;21.40;14.47;;;;;;;17.48;75.86;100744.53;5054601;58;21171;-79
2021/10/04 08:39:51;;;;;;;23.57;15.93;;;;;;;17.68;75.29;100742.52;5054813;58;21836;-79
2021/10/04 08:44:58;;;;;;;16.20;12.27;;;;;;;17.72;74.89;100742.02;5075417;57;21113;-79
2021/10/04 08:50:18;;;;;;;22.63;14.53;;;;;;;17.88;75.17;100734.56;5062421;58;21556;-80
2021/10/04 08:55:21;;;;;;;18.70;14.57;;;;;;;18.16;75.88;100733.86;5240450;56;21132;-80
2021/10/04 09:00:27;;;;;;;21.30;15.30;;;;;;;18.48;75.66;100725.06;5241679;56;21148;-83
2021/10/04 09:05:36;;;;;;;26.47;15.43;;;;;;;18.78;75.25;100728.98;5231904;56;21160;-81
2021/10/04 09:10:49;;;;;;;22.67;14.77;;;;;;;18.94;74.54;100728.45;5170290;56;21125;-84
2021/10/04 09:15:53;;;;;;;20.57;14.80;;;;;;;19.13;74.42;100733.97;5158695;56;21184;-83
2021/10/04 09:21:14;;;;;;;19.97;13.43;;;;;;;19.37;73.86;100725.07;5159832;57;22376;-85
2021/10/04 09:26:32;;;;;;;20.90;15.57;;;;;;;19.46;72.76;100728.56;5207771;55;21848;-83
2021/10/04 09:31:43;;;;;;;20.07;13.97;;;;;;;19.52;72.59;100740.83;5277598;56;21473;-82
2021/10/04 09:36:57;;;;;;;26.27;17.33;;;;;;;19.68;72.27;100740.45;5254456;56;21498;-83
2021/10/04 09:42:13;;;;;;;21.55;14.53;;;;;;;19.79;72.14;100735.54;5240921;56;21504;-85
2021/10/04 09:47:26;;;;;;;18.73;14.23;;;;;;;19.85;70.28;100752.30;5242537;56;21166;-78
2021/10/04 09:52:51;;;;;;;24.82;16.32;;;;;;;19.87;70.45;100754.79;5213320;56;21528;-86
2021/10/04 09:58:02;;;;;;;16.80;12.50;;;;;;;19.89;68.85;100763.00;5212750;56;21240;-84
2021/10/04 10:03:11;;;;;;;17.73;14.33;;;;;;;19.99;69.61;100762.82;5212024;56;22424;-79
2021/10/04 10:08:17;;;;;;;18.30;14.25;;;;;;;20.10;69.80;100758.91;5154467;56;21184;-81
2021/10/04 10:13:27;;;;;;;17.27;13.48;;;;;;;20.27;69.44;100757.31;5127055;57;21704;-85
2021/10/04 10:18:49;;;;;;;24.67;15.23;;;;;;;20.57;69.45;100756.16;5157898;57;21247;-83
2021/10/04 10:24:01;;;;;;;28.50;15.40;;;;;;;20.74;68.50;100751.52;5160781;56;21258;-82
2021/10/04 10:29:21;;;;;;;25.63;14.90;;;;;;;20.97;68.93;100739.72;5188014;56;21238;-79
2021/10/04 10:34:44;;;;;;;21.00;13.60;;;;;;;21.22;68.05;100736.86;5156416;56;21104;-83
2021/10/04 10:40:11;;;;;;;20.32;14.98;;;;;;;21.32;67.06;100739.60;5154863;56;21619;-83
2021/10/04 10:45:19;;;;;;;21.90;13.25;;;;;;;21.40;65.81;100749.44;5150620;56;21474;-81
2021/10/04 10:50:33;;;;;;;23.98;14.93;;;;;;;21.42;66.53;100759.51;5154298;56;21183;-80
2021/10/04 10:55:44;;;;;;;25.82;16.00;;;;;;;21.44;64.80;100765.55;5155303;56;21140;-80
2021/10/04 11:01:19;;;;;;;19.87;15.35;;;;;;;21.33;64.64;100763.31;5154755;56;21611;-80
2021/10/04 11:06:46;;;;;;;27.95;15.55;;;;;;;21.50;65.29;100775.59;5218525;55;21164;-81
2021/10/04 11:11:57;;;;;;;20.50;15.15;;;;;;;21.65;65.12;100778.30;5327448;55;21450;-79
2021/10/04 11:17:04;;;;;;;16.73;14.47;;;;;;;21.80;64.96;100793.11;5320933;55;21769;-86
2021/10/04 11:22:15;;;;;;;19.75;13.70;;;;;;;21.98;64.36;100796.27;5321043;55;21181;-81
2021/10/04 11:27:21;;;;;;;17.42;13.22;;;;;;;21.97;62.98;100792.75;5181887;55;21192;-82
2021/10/04 11:32:27;;;;;;;30.00;16.02;;;;;;;22.00;62.75;100790.19;5124200;56;21201;-81
2021/10/04 11:37:32;;;;;;;21.15;14.38;;;;;;;22.19;63.63;100798.22;5187502;56;21171;-78
2021/10/04 11:42:38;;;;;;;22.77;14.85;;;;;;;22.35;63.67;100782.68;5213552;56;21637;-80
2021/10/04 11:47:43;;;;;;;18.80;13.88;;;;;;;22.54;63.18;100781.75;5180640;56;21490;-80
2021/10/04 11:52:53;;;;;;;22.75;14.53;;;;;;;22.57;61.05;100778.69;5203648;56;21182;-80
2021/10/04 11:57:59;;;;;;;26.05;14.15;;;;;;;22.62;61.70;100777.58;5163725;56;21939;-84
2021/10/04 12:03:06;;;;;;;16.23;12.45;;;;;;;22.84;62.29;100771.73;5241798;56;21136;-82
2021/10/04 12:08:14;;;;;;;30.52;14.60;;;;;;;23.03;61.96;100784.58;5186467;56;21089;-79
2021/10/04 12:13:23;;;;;;;28.40;14.55;;;;;;;23.13;60.78;100786.42;5241273;56;21186;-82
2021/10/04 12:18:32;;;;;;;22.40;14.65;;;;;;;23.23;60.71;100788.27;5240460;56;21499;-79
2021/10/04 12:23:38;;;;;;;27.37;15.05;;;;;;;23.33;60.92;100781.20;5216273;56;21151;-83
2021/10/04 12:28:50;;;;;;;26.45;14.20;;;;;;;23.51;60.47;100776.19;5239433;56;21140;-85
2021/10/04 12:33:56;;;;;;;18.75;13.25;;;;;;;23.63;60.17;100769.72;5198981;56;21164;-84
2021/10/04 12:39:02;;;;;;;26.55;14.93;;;;;;;23.64;58.96;100770.88;5243548;56;21146;-84
2021/10/04 12:44:15;;;;;;;22.27;14.78;;;;;;;23.59;59.16;100774.67;5246971;56;21630;-84
2021/10/04 12:49:22;;;;;;;;;;;;;;;23.62;58.74;100774.80;5241952;55;21218;-85
2021/10/04 12:54:32;;;;;;;20.85;15.03;;;;;;;23.69;59.25;100772.95;5226046;56;20394;-83
2021/10/04 12:59:39;;;;;;;18.23;13.62;;;;;;;23.88;59.46;100780.35;5264231;56;21140;-83
2021/10/04 13:04:48;;;;;;;17.95;14.40;;;;;;;24.01;58.49;100771.48;5204911;56;21164;-84
2021/10/04 13:09:54;;;;;;;15.95;14.10;;;;;;;24.06;58.10;100777.95;5195391;56;21503;-88
2021/10/04 13:15:01;;;;;;;19.80;14.45;;;;;;;24.12;58.40;100789.33;5194408;56;21094;-86
2021/10/04 13:20:10;;;;;;;22.58;13.32;;;;;;;24.10;57.44;100782.45;5162395;57;21734;-84
2021/10/04 13:25:17;;;;;;;15.72;13.10;;;;;;;23.98;57.74;100778.66;5200723;56;21144;-86
2021/10/04 13:30:23;;;;;;;20.68;13.68;;;;;;;23.95;57.91;100784.45;5252503;56;21170;-86
2021/10/04 13:35:28;;;;;;;15.73;11.90;;;;;;;24.01;58.43;100790.39;5266558;56;21248;-86
2021/10/04 13:40:34;;;;;;;18.45;12.13;;;;;;;24.03;57.99;100806.73;5265396;56;21153;-85
2021/10/04 13:45:40;;;;;;;16.32;11.65;;;;;;;23.80;57.20;100801.62;5260275;56;21145;-84
2021/10/04 13:50:47;;;;;;;34.10;13.35;;;;;;;23.75;58.16;100805.42;5245765;56;21157;-84
2021/10/04 13:55:53;;;;;;;19.90;12.55;;;;;;;23.76;58.52;100803.55;5259990;56;21535;-85
2021/10/04 14:01:00;;;;;;;16.23;12.23;;;;;;;23.90;58.81;100808.52;5242975;56;21162;-85
2021/10/04 14:06:07;;;;;;;19.30;12.45;;;;;;;23.94;58.03;100808.45;5254264;56;21585;-84
2021/10/04 14:11:12;;;;;;;16.80;13.35;;;;;;;23.95;57.25;100807.42;5239369;56;21181;-86
2021/10/04 14:16:21;;;;;;;26.73;12.50;;;;;;;23.97;57.70;100808.89;5226617;56;21219;-82
2021/10/04 14:21:28;;;;;;;19.73;13.35;;;;;;;24.13;57.86;100819.89;5151276;56;21475;-85
2021/10/04 14:26:34;;;;;;;20.08;11.63;;;;;;;24.20;57.60;100837.80;5203843;56;21683;-88
2021/10/04 14:31:39;;;;;;;15.60;11.78;;;;;;;24.12;56.81;100847.44;5248111;56;21127;-88
2021/10/04 14:36:45;;;;;;;20.68;12.13;;;;;;;23.84;56.86;100844.73;5237195;56;21674;-85
2021/10/04 14:41:51;;;;;;;18.48;13.18;;;;;;;23.53;57.22;100856.99;5244220;56;22200;-86
2021/10/04 14:46:57;;;;;;;19.42;13.58;;;;;;;23.19;57.69;100854.98;5267038;55;21559;-88
2021/10/04 14:52:03;;;;;;;12.88;11.20;;;;;;;23.01;58.59;100855.42;5272098;56;21145;-87
2021/10/04 14:57:09;;;;;;;13.80;12.40;;;;;;;22.95;59.20;100849.44;5246606;56;21145;-86
2021/10/04 15:02:14;;;;;;;15.83;12.37;;;;;;;22.93;59.72;100853.67;5248531;56;21160;-87
2021/10/04 15:07:20;;;;;;;24.37;13.85;;;;;;;23.05;60.29;100857.56;5220492;56;21165;-87
2021/10/04 15:12:26;;;;;;;36.00;23.15;;;;;;;23.27;60.60;100858.38;5157577;56;21162;-86
2021/10/04 15:17:34;;;;;;;27.05;17.12;;;;;;;23.10;59.53;100865.89;5170107;56;21231;-86
2021/10/04 15:22:39;;;;;;;21.40;12.98;;;;;;;22.87;59.90;100857.15;5183944;56;21216;-87
2021/10/04 15:27:45;;;;;;;18.80;12.47;;;;;;;22.67;60.43;100866.83;5253697;56;21145;-86
2021/10/04 15:32:51;;;;;;;25.55;13.08;;;;;;;22.41;61.06;100864.14;5248384;56;21176;-87
2021/10/04 15:37:57;;;;;;;20.92;11.83;;;;;;;22.09;61.42;100872.60;5242244;56;21531;-86
2021/10/04 15:43:04;;;;;;;17.02;11.50;;;;;;;21.92;62.20;100873.25;5242510;56;21452;-86
2021/10/04 15:48:10;;;;;;;14.75;11.10;;;;;;;21.71;62.49;100863.18;5243606;56;21508;-88
2021/10/04 15:53:16;;;;;;;16.65;11.83;;;;;;;21.94;62.44;100876.60;5242787;56;21802;-86
2021/10/04 15:58:22;;;;;;;15.70;12.30;;;;;;;21.79;62.65;100882.48;5242857;56;21168;-87
2021/10/04 16:03:27;;;;;;;17.17;12.70;;;;;;;21.58;63.00;100895.27;5244104;56;21232;-87
2021/10/04 16:08:36;;;;;;;21.80;12.93;;;;;;;21.30;63.49;100907.61;5243480;56;21196;-86
2021/10/04 16:13:42;;;;;;;18.12;12.43;;;;;;;21.07;64.08;100922.38;5244239;56;21110;-86
2021/10/04 16:18:48;;;;;;;18.80;11.63;;;;;;;20.87;64.68;100927.84;5245205;56;21134;-87
2021/10/04 16:23:54;;;;;;;19.20;13.15;;;;;;;20.78;65.29;100924.34;5244718;56;21198;-87
2021/10/04 16:28:59;;;;;;;20.50;15.32;;;;;;;20.66;65.58;100923.91;5239983;56;21126;-87
2021/10/04 16:34:05;;;;;;;20.88;11.48;;;;;;;20.60;65.94;100927.30;5218358;56;21252;-87
2021/10/04 16:39:11;;;;;;;20.92;12.13;;;;;;;20.49;66.54;100941.09;5170352;56;21471;-86
2021/10/04 16:44:17;;;;;;;26.50;11.93;;;;;;;20.36;66.82;100937.61;5137032;57;21174;-86
2021/10/04 16:49:26;;;;;;;25.17;13.43;;;;;;;20.29;67.26;100946.52;5137770;57;21522;-90
2021/10/04 16:54:32;;;;;;;17.52;10.45;;;;;;;20.20;67.56;100944.34;5137555;57;21605;-86
2021/10/04 16:59:39;;;;;;;17.12;11.80;;;;;;;20.24;67.88;100951.55;5138079;57;21665;-87
2021/10/04 17:04:44;;;;;;;14.00;9.88;;;;;;;20.15;68.05;100960.64;5137525;57;21687;-87
2021/10/04 17:09:50;;;;;;;18.98;12.03;;;;;;;20.00;68.45;100957.81;5146111;56;22517;-87
2021/10/04 17:14:56;;;;;;;18.12;12.50;;;;;;;20.01;68.59;100963.52;5137381;57;21505;-87
2021/10/04 17:20:02;;;;;;;19.70;13.68;;;;;;;19.97;68.75;100971.57;5137765;57;21534;-88
2021/10/04 17:25:08;;;;;;;20.52;11.88;;;;;;;19.90;68.98;100970.05;5164432;56;21546;-86
2021/10/04 17:30:15;;;;;;;24.95;14.87;;;;;;;19.96;69.30;100972.07;5222336;56;21621;-87
2021/10/04 17:35:22;;;;;;;21.27;14.40;;;;;;;19.88;69.20;100969.37;5212575;57;21263;-87
2021/10/04 17:40:28;;;;;;;24.95;16.32;;;;;;;19.85;69.41;100975.61;5211735;57;21116;-87
2021/10/04 17:45:34;;;;;;;35.90;19.67;;;;;;;19.77;69.33;100985.83;5212394;57;21186;-86
2021/10/04 17:50:46;;;;;;;38.75;18.57;;;;;;;19.77;69.65;100979.11;5212361;57;21736;-87
2021/10/04 17:55:48;;;;;;;37.50;20.08;;;;;;;19.69;69.78;100985.84;5212082;56;21466;-88
2021/10/04 18:00:55;;;;;;;40.90;25.62;;;;;;;19.61;70.08;100990.67;5211699;57;21183;-87
2021/10/04 18:06:03;;;;;;;365.15;289.63;;;;;;;19.44;70.18;100999.67;5210872;57;21176;-88
2021/10/04 18:11:08;;;;;;;40.75;32.85;;;;;;;19.37;70.63;100996.48;5210387;57;21179;-86
2021/10/04 18:16:16;;;;;;;31.65;23.70;;;;;;;19.30;70.68;101013.72;5210698;57;21555;-88
2021/10/04 18:21:21;;;;;;;31.37;24.10;;;;;;;19.28;70.98;100993.77;5211415;57;21165;-86
2021/10/04 18:26:28;;;;;;;23.95;14.90;;;;;;;19.36;71.06;101005.53;5208836;56;21257;-87
2021/10/04 18:31:35;;;;;;;22.98;16.23;;;;;;;19.11;70.90;101022.87;5211674;56;21195;-85
2021/10/04 18:36:41;;;;;;;45.50;29.40;;;;;;;18.94;71.55;101014.45;5223750;56;21203;-87
2021/10/04 18:41:47;;;;;;;31.20;23.05;;;;;;;19.01;72.17;101006.08;5176720;56;21168;-87
2021/10/04 18:46:53;;;;;;;41.95;27.73;;;;;;;19.07;71.72;101001.42;5211840;56;21180;-88
2021/10/04 18:51:59;;;;;;;45.30;26.68;;;;;;;19.10;71.57;101013.14;5198183;56;21198;-88
2021/10/04 18:57:05;;;;;;;56.60;28.62;;;;;;;19.20;71.92;101007.66;5161507;57;21514;-86
2021/10/04 19:02:11;;;;;;;25.85;13.28;;;;;;;19.20;71.36;100996.94;5166878;57;21101;-85
2021/10/04 19:07:17;;;;;;;21.90;10.55;;;;;;;19.07;71.16;100996.56;5179354;56;21164;-85
2021/10/04 19:12:23;;;;;;;18.25;12.65;;;;;;;19.03;71.36;100989.34;5241079;56;21843;-85
2021/10/04 19:17:29;;;;;;;26.17;15.50;;;;;;;18.94;71.23;100995.69;5174547;56;21083;-85
2021/10/04 19:22:35;;;;;;;35.55;16.80;;;;;;;18.63;70.85;101012.78;5168944;57;21184;-87
2021/10/04 19:27:42;;;;;;;33.58;17.82;;;;;;;18.43;71.58;100998.73;5160719;57;21170;-85
2021/10/04 19:32:48;;;;;;;38.78;21.00;;;;;;;18.46;72.05;101003.78;5154786;57;21173;-86
2021/10/04 19:37:55;;;;;;;31.48;16.25;;;;;;;18.54;72.66;101006.49;5155007;57;21190;-85
2021/10/04 19:43:01;;;;;;;28.73;15.58;;;;;;;18.58;72.23;100987.80;5151213;57;21412;-85
2021/10/04 19:48:08;;;;;;;52.53;31.17;;;;;;;18.48;72.22;100980.86;5152650;57;21180;-84
2021/10/04 19:53:18;;;;;;;40.70;20.88;;;;;;;18.27;71.96;100990.59;5165063;57;21143;-88
2021/10/04 19:58:25;;;;;;;32.13;17.13;;;;;;;18.11;72.51;100986.46;5169241;57;21150;-88
2021/10/04 20:03:31;;;;;;;26.33;15.23;;;;;;;18.02;72.67;100998.95;5169398;57;21175;-85
2021/10/04 20:08:38;;;;;;;26.95;12.82;;;;;;;18.06;73.56;100990.94;5169386;57;22105;-84
2021/10/04 20:13:45;;;;;;;22.90;13.20;;;;;;;17.87;73.17;100997.30;5169213;57;21143;-84
2021/10/04 20:18:52;;;;;;;19.33;11.70;;;;;;;17.74;73.89;100992.84;5159984;57;21158;-85
2021/10/04 20:24:03;;;;;;;27.17;13.37;;;;;;;17.81;74.16;100990.41;5149170;57;21178;-85
2021/10/04 20:29:05;;;;;;;25.53;13.53;;;;;;;17.85;73.83;100992.63;5156051;57;21144;-84
2021/10/04 20:34:10;;;;;;;22.43;12.80;;;;;;;17.85;73.64;100995.30;5156816;57;21848;-85
2021/10/04 20:39:16;;;;;;;27.00;11.65;;;;;;;17.91;73.87;101001.36;5173477;57;21148;-86
2021/10/04 20:44:22;;;;;;;20.70;11.67;;;;;;;17.70;73.20;101011.55;5173407;57;21184;-85
2021/10/04 20:49:29;;;;;;;16.67;9.93;;;;;;;17.62;73.70;101009.25;5173960;57;21195;-85
2021/10/04 20:54:35;;;;;;;17.53;11.30;;;;;;;17.63;74.01;101010.44;5174684;57;21173;-84
2021/10/04 20:59:40;;;;;;;14.93;10.63;;;;;;;17.67;73.87;101012.35;5174709;57;21160;-85
2021/10/04 21:04:56;;;;;;;13.80;8.90;;;;;;;17.70;73.75;101006.20;5174780;57;21155;-84
2021/10/04 21:09:54;;;;;;;13.70;9.60;;;;;;;17.54;73.19;101013.55;5172796;57;21168;-85
2021/10/04 21:15:00;;;;;;;15.90;10.53;;;;;;;17.52;73.82;101008.84;5174671;57;21160;-85
2021/10/04 21:20:07;;;;;;;23.60;12.73;;;;;;;17.53;73.91;101001.16;5174795;57;21216;-85
2021/10/04 21:25:12;;;;;;;27.07;13.40;;;;;;;17.50;73.61;100995.27;5146973;57;21162;-84
2021/10/04 21:30:18;;;;;;;33.43;13.40;;;;;;;17.29;72.87;100992.03;5090657;58;21166;-84
2021/10/04 21:35:24;;;;;;;16.90;10.40;;;;;;;17.11;73.24;100990.16;5122120;56;21195;-84
2021/10/04 21:40:31;;;;;;;15.87;11.17;;;;;;;17.04;74.06;100988.25;5145697;57;21151;-85
2021/10/04 21:45:37;;;;;;;10.10;7.63;;;;;;;17.02;74.49;100979.05;5145616;57;21182;-84
2021/10/04 21:50:43;;;;;;;12.20;7.03;;;;;;;16.90;74.47;100967.38;5145172;57;21527;-84
2021/10/04 21:55:49;;;;;;;9.53;6.50;;;;;;;16.78;74.76;100956.90;5145436;57;21672;-84
2021/10/04 22:01:06;;;;;;;10.60;6.10;;;;;;;16.64;74.79;100948.53;5145365;57;21491;-84
2021/10/04 22:11:22;;;;;;;5.37;4.87;;;;;;;16.61;75.95;100932.77;5082524;57;22124;-83
2021/10/04 22:16:28;;;;;;;9.00;4.83;;;;;;;16.43;75.66;100928.69;5145477;57;21209;-85
2021/10/04 22:21:36;;;;;;;7.83;4.90;;;;;;;16.37;76.12;100938.12;5145494;57;21147;-84
2021/10/04 22:26:45;;;;;;;10.13;5.30;;;;;;;16.33;76.38;100938.58;5145592;57;21160;-84
2021/10/04 22:31:51;;;;;;;7.47;4.73;;;;;;;16.39;76.74;100956.66;5145574;57;21195;-84
2021/10/04 22:36:57;;;;;;;10.60;5.30;;;;;;;16.40;76.70;100954.34;5178889;57;21100;-84
2021/10/04 22:42:02;;;;;;;13.70;4.90;;;;;;;16.43;77.29;100938.04;5190382;57;21175;-84
2021/10/04 22:47:08;;;;;;;10.40;5.00;;;;;;;16.32;77.60;100939.56;5190231;57;21096;-84
2021/10/04 22:52:14;;;;;;;9.87;5.17;;;;;;;16.30;78.18;100942.86;5190379;57;21582;-84
2021/10/04 22:57:20;;;;;;;9.67;5.93;;;;;;;16.24;78.44;100938.94;5190524;57;21160;-85
2021/10/04 23:02:26;;;;;;;17.90;5.43;;;;;;;16.22;78.58;100932.06;5190297;57;22114;-84
2021/10/04 23:07:32;;;;;;;5.50;4.87;;;;;;;16.17;78.79;100904.00;5190209;57;21146;-85
2021/10/04 23:12:38;;;;;;;6.57;5.20;;;;;;;16.02;79.09;100889.94;5190230;57;21096;-84
2021/10/04 23:17:44;;;;;;;9.17;6.13;;;;;;;15.80;79.63;100885.27;5190217;57;21167;-85
2021/10/04 23:22:50;;;;;;;10.50;6.10;;;;;;;15.70;80.04;100884.95;5190270;57;21104;-85
2021/10/04 23:27:56;;;;;;;12.87;7.33;;;;;;;15.68;80.15;100897.09;5190958;57;21187;-85
2021/10/04 23:33:02;;;;;;;7.80;6.63;;;;;;;15.72;80.62;100906.50;5190917;57;21159;-85
2021/10/04 23:38:08;;;;;;;12.50;6.77;;;;;;;15.77;80.60;100917.56;5153136;57;21496;-85
2021/10/04 23:43:14;;;;;;;10.23;6.77;;;;;;;15.77;80.16;100920.23;5146182;57;21108;-85
2021/10/04 23:48:20;;;;;;;11.00;7.63;;;;;;;15.80;80.31;100914.61;5146110;57;21148;-85
2021/10/04 23:53:25;;;;;;;13.90;8.90;;;;;;;15.92;80.10;100909.95;5146146;57;21160;-85
2021/10/04 23:58:33;;;;;;;15.33;9.60;;;;;;;15.97;79.90;100905.52;5146237;57;21559;-85
